createdAt,value
2022-09-14T00:00:32.184Z,965.20
2022-09-14T00:01:32.198Z,965.19
2022-09-14T00:02:32.325Z,965.23
2022-09-14T00:03:32.140Z,965.19
2022-09-14T00:04:32.104Z,965.18
2022-09-14T00:05:32.139Z,965.15
2022-09-14T00:06:32.115Z,965.12
2022-09-14T00:07:32.074Z,965.12
2022-09-14T00:08:32.117Z,965.17
2022-09-14T00:09:32.055Z,965.11
2022-09-14T00:10:32.049Z,965.14
2022-09-14T00:11:32.043Z,965.16
2022-09-14T00:12:32.054Z,965.16
2022-09-14T00:13:31.999Z,965.14
2022-09-14T00:14:31.982Z,965.18
2022-09-14T00:15:31.991Z,965.17
2022-09-14T00:16:32.080Z,965.18
2022-09-14T00:17:31.969Z,965.12
2022-09-14T00:18:31.947Z,965.12
2022-09-14T00:19:31.932Z,965.07
2022-09-14T00:20:31.949Z,965.11
2022-09-14T00:21:31.951Z,965.08
2022-09-14T00:22:31.894Z,965.06
2022-09-14T00:23:32.517Z,965.03
2022-09-14T00:24:38.504Z,965.07
2022-09-14T00:25:32.884Z,965.02
2022-09-14T00:26:31.848Z,964.98
2022-09-14T00:27:32.443Z,965.01
2022-09-14T00:28:32.665Z,965.01
2022-09-14T00:29:31.854Z,964.92
2022-09-14T00:30:31.828Z,964.97
2022-09-14T00:31:32.004Z,964.98
2022-09-14T00:32:31.835Z,964.94
2022-09-14T00:33:31.837Z,964.95
2022-09-14T00:34:31.784Z,964.98
2022-09-14T00:35:31.796Z,964.91
2022-09-14T00:36:31.769Z,964.94
2022-09-14T00:37:32.568Z,964.97
2022-09-14T00:38:31.739Z,964.96
2022-09-14T00:39:31.763Z,964.94
2022-09-14T00:40:31.733Z,964.90
2022-09-14T00:41:31.731Z,964.89
2022-09-14T00:42:31.705Z,964.85
2022-09-14T00:43:31.728Z,964.82
2022-09-14T00:44:31.662Z,964.82
2022-09-14T00:45:31.698Z,964.81
2022-09-14T00:46:31.642Z,964.80
2022-09-14T00:47:31.692Z,964.79
2022-09-14T00:48:31.688Z,964.83
2022-09-14T00:49:31.656Z,964.72
2022-09-14T00:50:31.659Z,964.80
2022-09-14T00:51:31.602Z,964.76
2022-09-14T00:52:31.598Z,964.75
2022-09-14T00:53:31.618Z,964.68
2022-09-14T00:54:31.577Z,964.73
2022-09-14T00:55:31.557Z,964.67
2022-09-14T00:56:31.540Z,964.71
2022-09-14T00:57:31.545Z,964.69
2022-09-14T00:58:31.536Z,964.68
2022-09-14T00:59:31.579Z,964.70
2022-09-14T01:00:31.500Z,964.65
2022-09-14T01:01:31.562Z,964.65
2022-09-14T01:02:31.509Z,964.62
2022-09-14T01:03:31.455Z,964.63
2022-09-14T01:04:32.525Z,964.59
2022-09-14T01:05:31.469Z,964.59
2022-09-14T01:06:31.415Z,964.64
2022-09-14T01:07:31.463Z,964.63
2022-09-14T01:08:31.450Z,964.58
2022-09-14T01:09:31.441Z,964.58
2022-09-14T01:10:31.463Z,964.52
2022-09-14T01:11:31.389Z,964.56
2022-09-14T01:12:31.399Z,964.55
2022-09-14T01:13:31.388Z,964.55
2022-09-14T01:14:31.382Z,964.55
2022-09-14T01:15:31.425Z,964.57
2022-09-14T01:16:31.332Z,964.61
2022-09-14T01:17:31.319Z,964.58
2022-09-14T01:18:31.311Z,964.53
2022-09-14T01:19:31.297Z,964.53
2022-09-14T01:20:31.314Z,964.59
2022-09-14T01:21:31.254Z,964.56
2022-09-14T01:22:31.266Z,964.60
2022-09-14T01:23:31.241Z,964.55
2022-09-14T01:24:31.265Z,964.54
2022-09-14T01:25:31.271Z,964.54
2022-09-14T01:26:31.229Z,964.51
2022-09-14T01:27:31.206Z,964.49
2022-09-14T01:28:31.184Z,964.45
2022-09-14T01:29:31.193Z,964.44
2022-09-14T01:30:31.198Z,964.46
2022-09-14T01:31:31.222Z,964.41
2022-09-14T01:32:31.143Z,964.39
2022-09-14T01:33:31.177Z,964.35
2022-09-14T01:34:31.129Z,964.33
2022-09-14T01:35:31.240Z,964.36
2022-09-14T01:36:31.111Z,964.37
2022-09-14T01:37:31.133Z,964.36
2022-09-14T01:38:31.099Z,964.40
2022-09-14T01:39:31.084Z,964.45
2022-09-14T01:40:31.115Z,964.46
2022-09-14T01:41:31.108Z,964.46
2022-09-14T01:42:31.047Z,964.46
2022-09-14T01:43:31.039Z,964.48
2022-09-14T01:44:31.039Z,964.50
2022-09-14T01:45:31.047Z,964.51
2022-09-14T01:46:31.052Z,964.52
2022-09-14T01:47:30.990Z,964.50
2022-09-14T01:48:30.971Z,964.46
2022-09-14T01:49:31.045Z,964.50
2022-09-14T01:50:30.951Z,964.45
2022-09-14T01:51:31.023Z,964.49
2022-09-14T01:52:30.934Z,964.42
2022-09-14T01:53:30.918Z,964.43
2022-09-14T01:54:30.945Z,964.41
2022-09-14T01:55:30.919Z,964.40
2022-09-14T01:56:30.895Z,964.43
2022-09-14T01:57:30.945Z,964.42
2022-09-14T01:58:30.872Z,964.43
2022-09-14T01:59:30.945Z,964.43
2022-09-14T02:00:30.848Z,964.38
2022-09-14T02:01:30.906Z,964.38
2022-09-14T02:02:30.983Z,964.38
2022-09-14T02:03:30.810Z,964.36
2022-09-14T02:04:30.813Z,964.39
2022-09-14T02:05:30.792Z,964.39
2022-09-14T02:06:30.762Z,964.34
2022-09-14T02:07:31.810Z,964.33
2022-09-14T02:08:30.764Z,964.36
2022-09-14T02:09:30.736Z,964.32
2022-09-14T02:10:30.750Z,964.31
2022-09-14T02:11:30.744Z,964.30
2022-09-14T02:12:30.747Z,964.27
2022-09-14T02:13:30.706Z,964.33
2022-09-14T02:14:30.703Z,964.27
2022-09-14T02:15:30.667Z,964.23
2022-09-14T02:16:30.751Z,964.15
2022-09-14T02:17:30.681Z,964.20
2022-09-14T02:18:30.636Z,964.15
2022-09-14T02:19:30.652Z,964.09
2022-09-14T02:20:30.634Z,964.17
2022-09-14T02:21:30.630Z,964.16
2022-09-14T02:22:30.629Z,964.23
2022-09-14T02:23:30.662Z,964.18
2022-09-14T02:24:30.590Z,964.17
2022-09-14T02:25:31.592Z,964.14
2022-09-14T02:26:30.584Z,964.14
2022-09-14T02:27:30.804Z,964.13
2022-09-14T02:28:30.585Z,964.13
2022-09-14T02:29:30.554Z,964.14
2022-09-14T02:30:30.539Z,964.19
2022-09-14T02:31:30.541Z,964.16
2022-09-14T02:32:30.518Z,964.17
2022-09-14T02:33:30.528Z,964.18
2022-09-14T02:34:30.522Z,964.19
2022-09-14T02:35:30.481Z,964.09
2022-09-14T02:36:30.627Z,964.07
2022-09-14T02:37:30.524Z,964.10
2022-09-14T02:38:30.462Z,964.09
2022-09-14T02:39:30.585Z,964.11
2022-09-14T02:40:30.499Z,964.09
2022-09-14T02:41:30.419Z,964.05
2022-09-14T02:42:30.457Z,964.05
2022-09-14T02:43:30.426Z,964.02
2022-09-14T02:44:30.382Z,963.99
2022-09-14T02:45:30.403Z,963.98
2022-09-14T02:46:30.436Z,963.97
2022-09-14T02:47:30.381Z,963.96
2022-09-14T02:48:30.347Z,963.93
2022-09-14T02:49:31.370Z,963.94
2022-09-14T02:50:30.346Z,963.98
2022-09-14T02:51:30.321Z,963.89
2022-09-14T02:52:30.299Z,963.96
2022-09-14T02:53:30.347Z,963.92
2022-09-14T02:54:30.297Z,963.94
2022-09-14T02:55:30.304Z,963.92
2022-09-14T02:56:30.285Z,963.89
2022-09-14T02:57:31.275Z,963.85
2022-09-14T02:58:30.266Z,963.90
2022-09-14T02:59:30.230Z,963.88
2022-09-14T03:00:30.223Z,963.87
2022-09-14T03:01:30.289Z,963.88
2022-09-14T03:02:30.167Z,963.88
2022-09-14T03:03:34.841Z,963.93
2022-09-14T03:04:30.169Z,963.92
2022-09-14T03:05:30.165Z,963.87
2022-09-14T03:06:30.134Z,963.90
2022-09-14T03:07:30.158Z,963.90
2022-09-14T03:08:30.117Z,963.88
2022-09-14T03:09:30.143Z,963.84
2022-09-14T03:10:30.141Z,963.82
2022-09-14T03:11:30.104Z,963.85
2022-09-14T03:12:30.122Z,963.85
2022-09-14T03:13:30.105Z,963.82
2022-09-14T03:14:30.050Z,963.78
2022-09-14T03:15:30.056Z,963.75
2022-09-14T03:16:30.149Z,963.76
2022-09-14T03:17:30.057Z,963.72
2022-09-14T03:18:30.048Z,963.70
2022-09-14T03:19:30.036Z,963.69
2022-09-14T03:20:29.991Z,963.65
2022-09-14T03:21:29.999Z,963.58
2022-09-14T03:22:30.497Z,963.63
2022-09-14T03:23:30.037Z,963.56
2022-09-14T03:24:29.953Z,963.63
2022-09-14T03:25:29.960Z,963.52
2022-09-14T03:26:29.941Z,963.48
2022-09-14T03:27:29.948Z,963.51
2022-09-14T03:28:29.947Z,963.48
2022-09-14T03:29:29.892Z,963.52
2022-09-14T03:30:29.918Z,963.48
2022-09-14T03:31:30.340Z,963.49
2022-09-14T03:32:29.868Z,963.43
2022-09-14T03:33:29.865Z,963.45
2022-09-14T03:34:29.855Z,963.45
2022-09-14T03:35:29.873Z,963.46
2022-09-14T03:36:29.817Z,963.44
2022-09-14T03:37:29.819Z,963.46
2022-09-14T03:38:29.817Z,963.48
2022-09-14T03:39:29.830Z,963.51
2022-09-14T03:40:29.839Z,963.53
2022-09-14T03:41:29.799Z,963.55
2022-09-14T03:42:29.758Z,963.53
2022-09-14T03:43:29.817Z,963.46
2022-09-14T03:44:29.779Z,963.48
2022-09-14T03:45:29.771Z,963.45
2022-09-14T03:46:29.790Z,963.50
2022-09-14T03:47:29.708Z,963.45
2022-09-14T03:48:29.707Z,963.40
2022-09-14T03:49:29.707Z,963.39
2022-09-14T03:50:29.716Z,963.42
2022-09-14T03:51:29.687Z,963.44
2022-09-14T03:52:29.664Z,963.46
2022-09-14T03:53:29.651Z,963.43
2022-09-14T03:54:29.647Z,963.39
2022-09-14T03:55:29.657Z,963.40
2022-09-14T03:56:29.631Z,963.38
2022-09-14T03:57:29.586Z,963.37
2022-09-14T03:58:29.597Z,963.36
2022-09-14T03:59:29.662Z,963.34
2022-09-14T04:00:29.566Z,963.36
2022-09-14T04:01:29.614Z,963.35
2022-09-14T04:02:29.620Z,963.33
2022-09-14T04:03:29.540Z,963.37
2022-09-14T04:04:29.527Z,963.36
2022-09-14T04:05:30.515Z,963.35
2022-09-14T04:06:29.562Z,963.39
2022-09-14T04:07:29.500Z,963.37
2022-09-14T04:08:29.483Z,963.35
2022-09-14T04:09:29.461Z,963.40
2022-09-14T04:10:29.493Z,963.35
2022-09-14T04:11:29.479Z,963.34
2022-09-14T04:12:29.441Z,963.35
2022-09-14T04:13:29.441Z,963.31
2022-09-14T04:14:29.421Z,963.35
2022-09-14T04:15:29.420Z,963.33
2022-09-14T04:16:29.449Z,963.30
2022-09-14T04:17:30.158Z,963.34
2022-09-14T04:18:29.389Z,963.31
2022-09-14T04:19:29.367Z,963.28
2022-09-14T04:20:29.362Z,963.23
2022-09-14T04:21:29.344Z,963.28
2022-09-14T04:22:29.368Z,963.23
2022-09-14T04:23:29.337Z,963.26
2022-09-14T04:24:30.638Z,963.23
2022-09-14T04:25:30.312Z,963.17
2022-09-14T04:26:30.010Z,963.20
2022-09-14T04:27:29.288Z,963.17
2022-09-14T04:28:29.344Z,963.24
2022-09-14T04:29:29.264Z,963.26
2022-09-14T04:30:29.255Z,963.24
2022-09-14T04:31:29.279Z,963.28
2022-09-14T04:32:34.035Z,963.26
2022-09-14T04:33:29.442Z,963.22
2022-09-14T04:34:29.265Z,963.28
2022-09-14T04:35:29.309Z,963.25
2022-09-14T04:36:29.199Z,963.22
2022-09-14T04:37:29.234Z,963.21
2022-09-14T04:38:29.192Z,963.23
2022-09-14T04:39:29.177Z,963.28
2022-09-14T04:40:29.251Z,963.20
2022-09-14T04:41:29.164Z,963.26
2022-09-14T04:42:29.125Z,963.29
2022-09-14T04:43:29.127Z,963.27
2022-09-14T04:44:29.139Z,963.24
2022-09-14T04:45:29.115Z,963.17
2022-09-14T04:46:29.129Z,963.21
2022-09-14T04:47:29.092Z,963.20
2022-09-14T04:48:29.070Z,963.18
2022-09-14T04:49:29.082Z,963.14
2022-09-14T04:50:29.075Z,963.16
2022-09-14T04:51:29.027Z,963.05
2022-09-14T04:52:29.073Z,963.12
2022-09-14T04:53:29.017Z,963.04
2022-09-14T04:54:28.993Z,963.10
2022-09-14T04:55:29.063Z,963.06
2022-09-14T04:56:28.995Z,963.05
2022-09-14T04:57:28.973Z,963.10
2022-09-14T04:58:28.975Z,963.02
2022-09-14T04:59:28.965Z,963.09
2022-09-14T05:00:28.985Z,963.14
2022-09-14T05:01:28.969Z,963.07
2022-09-14T05:02:28.936Z,963.08
2022-09-14T05:03:29.005Z,963.09
2022-09-14T05:04:28.893Z,963.12
2022-09-14T05:05:28.878Z,963.09
2022-09-14T05:06:28.896Z,963.11
2022-09-14T05:07:28.857Z,963.12
2022-09-14T05:08:28.870Z,963.11
2022-09-14T05:09:28.839Z,963.06
2022-09-14T05:10:28.823Z,963.07
2022-09-14T05:11:28.873Z,963.11
2022-09-14T05:12:28.849Z,963.06
2022-09-14T05:13:28.800Z,963.12
2022-09-14T05:14:28.803Z,963.10
2022-09-14T05:15:28.767Z,963.11
2022-09-14T05:16:28.868Z,963.11
2022-09-14T05:17:28.759Z,963.17
2022-09-14T05:18:28.748Z,963.16
2022-09-14T05:19:28.733Z,963.17
2022-09-14T05:20:28.902Z,963.15
2022-09-14T05:21:28.719Z,963.15
2022-09-14T05:22:28.715Z,963.16
2022-09-14T05:23:28.705Z,963.10
2022-09-14T05:24:28.694Z,963.18
2022-09-14T05:25:28.682Z,963.16
2022-09-14T05:26:28.672Z,963.13
2022-09-14T05:27:28.671Z,963.15
2022-09-14T05:28:28.655Z,963.15
2022-09-14T05:29:28.637Z,963.15
2022-09-14T05:30:28.629Z,963.17
2022-09-14T05:31:28.663Z,963.18
2022-09-14T05:32:28.640Z,963.11
2022-09-14T05:33:28.611Z,963.08
2022-09-14T05:34:28.565Z,963.12
2022-09-14T05:35:28.570Z,963.07
2022-09-14T05:36:28.583Z,963.09
2022-09-14T05:37:28.557Z,963.06
2022-09-14T05:38:28.574Z,963.05
2022-09-14T05:39:28.536Z,963.07
2022-09-14T05:40:28.580Z,963.00
2022-09-14T05:41:28.512Z,963.06
2022-09-14T05:42:28.517Z,963.05
2022-09-14T05:43:28.544Z,963.05
2022-09-14T05:44:28.497Z,963.06
2022-09-14T05:45:28.479Z,963.05
2022-09-14T05:46:28.507Z,963.06
2022-09-14T05:47:28.505Z,963.08
2022-09-14T05:48:28.435Z,963.04
2022-09-14T05:49:28.454Z,963.01
2022-09-14T05:50:28.435Z,962.99
2022-09-14T05:51:28.469Z,962.99
2022-09-14T05:52:28.408Z,962.97
2022-09-14T05:53:28.393Z,963.04
2022-09-14T05:54:28.388Z,963.00
2022-09-14T05:55:28.365Z,962.96
2022-09-14T05:56:28.371Z,962.98
2022-09-14T05:57:29.366Z,962.94
2022-09-14T05:58:28.357Z,962.91
2022-09-14T05:59:28.395Z,962.94
2022-09-14T06:00:28.359Z,962.88
2022-09-14T06:01:28.371Z,962.93
2022-09-14T06:02:28.310Z,962.93
2022-09-14T06:03:28.325Z,962.95
2022-09-14T06:04:28.285Z,962.95
2022-09-14T06:05:28.338Z,962.95
2022-09-14T06:06:28.266Z,962.97
2022-09-14T06:07:28.328Z,962.96
2022-09-14T06:08:28.273Z,963.00
2022-09-14T06:09:32.926Z,962.97
2022-09-14T06:10:28.205Z,962.99
2022-09-14T06:11:28.213Z,962.98
2022-09-14T06:12:28.181Z,962.97
2022-09-14T06:13:28.153Z,962.95
2022-09-14T06:14:28.177Z,962.93
2022-09-14T06:15:28.182Z,962.98
2022-09-14T06:16:28.284Z,962.90
2022-09-14T06:17:28.150Z,962.88
2022-09-14T06:18:28.143Z,962.97
2022-09-14T06:19:28.102Z,962.93
2022-09-14T06:20:28.185Z,962.90
2022-09-14T06:21:28.130Z,962.97
2022-09-14T06:22:28.077Z,962.87
2022-09-14T06:23:28.072Z,962.96
2022-09-14T06:24:28.078Z,962.92
2022-09-14T06:25:28.174Z,962.90
2022-09-14T06:26:28.116Z,963.00
2022-09-14T06:27:28.060Z,963.00
2022-09-14T06:28:28.038Z,962.98
2022-09-14T06:29:28.010Z,962.94
2022-09-14T06:30:28.014Z,962.97
2022-09-14T06:31:28.010Z,962.97
2022-09-14T06:32:27.983Z,962.97
2022-09-14T06:33:27.965Z,962.93
2022-09-14T06:34:27.954Z,962.92
2022-09-14T06:35:27.948Z,962.92
2022-09-14T06:36:27.954Z,962.95
2022-09-14T06:37:27.920Z,962.91
2022-09-14T06:38:27.939Z,962.92
2022-09-14T06:39:27.900Z,962.94
2022-09-14T06:40:28.000Z,962.94
2022-09-14T06:41:27.908Z,962.93
2022-09-14T06:42:27.870Z,962.89
2022-09-14T06:43:27.853Z,962.94
2022-09-14T06:44:27.843Z,962.91
2022-09-14T06:45:27.838Z,962.94
2022-09-14T06:46:27.825Z,962.93
2022-09-14T06:47:27.805Z,962.89
2022-09-14T06:48:27.796Z,962.93
2022-09-14T06:49:27.790Z,962.86
2022-09-14T06:50:27.796Z,962.87
2022-09-14T06:51:27.780Z,962.90
2022-09-14T06:52:31.722Z,962.90
2022-09-14T06:53:27.726Z,962.89
2022-09-14T06:54:27.736Z,962.87
2022-09-14T06:55:27.750Z,962.87
2022-09-14T06:56:27.732Z,962.87
2022-09-14T06:57:27.689Z,962.84
2022-09-14T06:58:27.679Z,962.91
2022-09-14T06:59:27.688Z,962.84
2022-09-14T07:00:27.696Z,962.84
2022-09-14T07:01:27.699Z,962.83
2022-09-14T07:02:27.698Z,962.82
2022-09-14T07:03:27.629Z,962.82
2022-09-14T07:04:27.630Z,962.81
2022-09-14T07:05:27.669Z,962.92
2022-09-14T07:06:27.643Z,962.87
2022-09-14T07:07:27.594Z,962.86
2022-09-14T07:08:27.653Z,962.86
2022-09-14T07:09:27.577Z,962.90
2022-09-14T07:10:27.590Z,962.89
2022-09-14T07:11:27.996Z,962.94
2022-09-14T07:12:27.575Z,962.87
2022-09-14T07:13:28.971Z,962.93
2022-09-14T07:14:32.013Z,962.94
2022-09-14T07:15:27.651Z,962.94
2022-09-14T07:16:27.582Z,962.96
2022-09-14T07:17:27.506Z,962.96
2022-09-14T07:18:27.565Z,962.98
2022-09-14T07:19:27.547Z,962.97
2022-09-14T07:20:27.844Z,963.03
2022-09-14T07:21:27.552Z,962.98
2022-09-14T07:22:27.636Z,962.93
2022-09-14T07:23:27.470Z,963.01
2022-09-14T07:24:27.553Z,962.91
2022-09-14T07:25:27.453Z,962.94
2022-09-14T07:26:27.611Z,962.92
2022-09-14T07:27:27.610Z,962.95
2022-09-14T07:28:27.450Z,962.96
2022-09-14T07:29:27.398Z,962.93
2022-09-14T07:30:27.437Z,962.93
2022-09-14T07:31:27.581Z,962.88
2022-09-14T07:32:27.352Z,962.91
2022-09-14T07:33:27.372Z,962.91
2022-09-14T07:34:27.354Z,962.91
2022-09-14T07:35:27.332Z,962.92
2022-09-14T07:36:29.501Z,962.98
2022-09-14T07:37:27.298Z,962.97
2022-09-14T07:38:48.598Z,962.94
2022-09-14T07:39:27.277Z,962.98
2022-09-14T07:40:27.379Z,962.94
2022-09-14T07:41:27.314Z,962.95
2022-09-14T07:42:27.246Z,962.98
2022-09-14T07:43:27.233Z,963.00
2022-09-14T07:44:27.213Z,962.98
2022-09-14T07:45:27.217Z,962.94
2022-09-14T07:46:27.239Z,963.02
2022-09-14T07:47:27.164Z,962.99
2022-09-14T07:48:27.206Z,962.95
2022-09-14T07:49:27.158Z,962.94
2022-09-14T07:50:27.150Z,962.89
2022-09-14T07:51:27.193Z,962.92
2022-09-14T07:52:27.148Z,962.96
2022-09-14T07:53:27.170Z,962.94
2022-09-14T07:54:27.135Z,962.89
2022-09-14T07:55:27.105Z,962.88
2022-09-14T07:56:27.177Z,962.88
2022-09-14T07:57:52.177Z,962.86
2022-09-14T07:58:27.075Z,962.85
2022-09-14T07:59:42.285Z,962.89
2022-09-14T08:00:29.042Z,962.88
2022-09-14T08:01:27.116Z,962.86
2022-09-14T08:02:27.065Z,962.89
2022-09-14T08:03:27.027Z,962.87
2022-09-14T08:04:27.012Z,962.92
2022-09-14T08:05:26.978Z,962.91
2022-09-14T08:06:27.673Z,962.90
2022-09-14T08:07:26.969Z,962.93
2022-09-14T08:08:26.954Z,962.89
2022-09-14T08:09:26.946Z,962.93
2022-09-14T08:10:26.942Z,962.95
2022-09-14T08:11:26.921Z,962.94
2022-09-14T08:12:26.933Z,962.96
2022-09-14T08:13:26.921Z,962.94
2022-09-14T08:14:26.900Z,962.90
2022-09-14T08:15:28.645Z,962.95
2022-09-14T08:16:26.909Z,962.98
2022-09-14T08:17:26.898Z,962.98
2022-09-14T08:18:26.878Z,962.99
2022-09-14T08:19:26.851Z,962.97
2022-09-14T08:20:26.824Z,962.97
2022-09-14T08:21:26.866Z,962.93
2022-09-14T08:22:26.857Z,962.94
2022-09-14T08:23:26.813Z,962.93
2022-09-14T08:24:26.805Z,962.95
2022-09-14T08:25:26.798Z,962.90
2022-09-14T08:26:26.766Z,962.92
2022-09-14T08:27:26.791Z,962.83
2022-09-14T08:28:26.765Z,962.91
2022-09-14T08:29:26.748Z,962.94
2022-09-14T08:30:27.761Z,962.84
2022-09-14T08:31:26.750Z,962.86
2022-09-14T08:32:26.765Z,962.89
2022-09-14T08:33:26.746Z,962.89
2022-09-14T08:34:26.693Z,962.92
2022-09-14T08:35:46.851Z,962.94
2022-09-14T08:36:26.686Z,962.89
2022-09-14T08:37:26.692Z,962.89
2022-09-14T08:38:26.633Z,962.87
2022-09-14T08:39:26.649Z,962.87
2022-09-14T08:40:26.659Z,962.92
2022-09-14T08:41:26.619Z,962.91
2022-09-14T08:42:26.626Z,962.84
2022-09-14T08:43:26.649Z,962.84
2022-09-14T08:44:26.607Z,962.88
2022-09-14T08:45:26.630Z,962.86
2022-09-14T08:46:26.613Z,962.83
2022-09-14T08:47:26.624Z,962.81
2022-09-14T08:48:26.583Z,962.85
2022-09-14T08:49:26.538Z,962.82
2022-09-14T08:50:26.524Z,962.78
2022-09-14T08:51:26.510Z,962.82
2022-09-14T08:52:26.532Z,962.81
2022-09-14T08:53:26.488Z,962.82
2022-09-14T08:54:26.508Z,962.78
2022-09-14T08:55:26.478Z,962.72
2022-09-14T08:56:26.447Z,962.74
2022-09-14T08:57:26.453Z,962.73
2022-09-14T08:58:26.469Z,962.73
2022-09-14T08:59:26.468Z,962.71
2022-09-14T09:00:26.403Z,962.72
2022-09-14T09:01:26.481Z,962.80
2022-09-14T09:02:26.386Z,962.73
2022-09-14T09:03:26.442Z,962.73
2022-09-14T09:04:26.398Z,962.86
2022-09-14T09:05:26.437Z,962.80
2022-09-14T09:06:26.355Z,962.78
2022-09-14T09:07:26.367Z,962.83
2022-09-14T09:08:26.332Z,962.75
2022-09-14T09:09:26.295Z,962.78
2022-09-14T09:10:26.331Z,962.77
2022-09-14T09:11:26.312Z,962.75
2022-09-14T09:12:26.279Z,962.78
2022-09-14T09:13:26.261Z,962.75
2022-09-14T09:14:26.268Z,962.77
2022-09-14T09:15:26.225Z,962.72
2022-09-14T09:16:26.274Z,962.74
2022-09-14T09:17:26.220Z,962.71
2022-09-14T09:18:26.199Z,962.69
2022-09-14T09:19:28.706Z,962.71
2022-09-14T09:20:26.189Z,962.69
2022-09-14T09:21:26.192Z,962.69
2022-09-14T09:22:26.168Z,962.69
2022-09-14T09:23:26.170Z,962.68
2022-09-14T09:24:26.261Z,962.66
2022-09-14T09:25:26.174Z,962.70
2022-09-14T09:26:26.194Z,962.67
2022-09-14T09:27:26.138Z,962.72
2022-09-14T09:28:26.100Z,962.72
2022-09-14T09:29:26.094Z,962.78
2022-09-14T09:30:26.090Z,962.67
2022-09-14T09:31:26.165Z,962.71
2022-09-14T09:32:26.084Z,962.71
2022-09-14T09:33:26.041Z,962.74
2022-09-14T09:34:26.042Z,962.74
2022-09-14T09:35:26.045Z,962.65
2022-09-14T09:36:26.009Z,962.65
2022-09-14T09:37:26.024Z,962.65
2022-09-14T09:38:26.009Z,962.67
2022-09-14T09:39:25.993Z,962.65
2022-09-14T09:40:26.035Z,962.72
2022-09-14T09:41:25.981Z,962.67
2022-09-14T09:42:25.984Z,962.70
2022-09-14T09:43:47.833Z,962.69
2022-09-14T09:44:25.954Z,962.71
2022-09-14T09:45:25.923Z,962.69
2022-09-14T09:46:25.979Z,962.77
2022-09-14T09:47:25.928Z,962.70
2022-09-14T09:48:25.916Z,962.79
2022-09-14T09:49:25.883Z,962.78
2022-09-14T09:50:25.905Z,962.77
2022-09-14T09:51:25.868Z,962.78
2022-09-14T09:52:25.870Z,962.82
2022-09-14T09:53:25.851Z,962.81
2022-09-14T09:54:25.848Z,962.77
2022-09-14T09:55:25.803Z,962.81
2022-09-14T09:56:27.018Z,962.80
2022-09-14T09:57:25.833Z,962.74
2022-09-14T09:58:25.781Z,962.74
2022-09-14T09:59:25.781Z,962.75
2022-09-14T10:00:25.784Z,962.66
2022-09-14T10:01:25.812Z,962.72
2022-09-14T10:02:25.885Z,962.67
2022-09-14T10:03:25.750Z,962.64
2022-09-14T10:04:25.710Z,962.65
2022-09-14T10:05:25.742Z,962.65
2022-09-14T10:06:25.733Z,962.58
2022-09-14T10:07:25.746Z,962.61
2022-09-14T10:08:25.695Z,962.58
2022-09-14T10:09:25.679Z,962.51
2022-09-14T10:10:25.663Z,962.56
2022-09-14T10:11:25.651Z,962.60
2022-09-14T10:12:25.682Z,962.65
2022-09-14T10:13:25.665Z,962.67
2022-09-14T10:14:25.611Z,962.61
2022-09-14T10:15:25.605Z,962.63
2022-09-14T10:16:25.685Z,962.62
2022-09-14T10:17:25.568Z,962.59
2022-09-14T10:18:25.590Z,962.55
2022-09-14T10:19:25.593Z,962.59
2022-09-14T10:20:25.579Z,962.55
2022-09-14T10:21:25.553Z,962.61
2022-09-14T10:22:26.615Z,962.59
2022-09-14T10:23:26.554Z,962.57
2022-09-14T10:24:25.519Z,962.59
2022-09-14T10:25:25.517Z,962.55
2022-09-14T10:26:25.494Z,962.55
2022-09-14T10:27:25.500Z,962.56
2022-09-14T10:28:25.506Z,962.50
2022-09-14T10:29:25.453Z,962.52
2022-09-14T10:30:25.460Z,962.59
2022-09-14T10:31:25.486Z,962.56
2022-09-14T10:32:25.472Z,962.54
2022-09-14T10:33:25.491Z,962.53
2022-09-14T10:34:25.429Z,962.53
2022-09-14T10:35:25.404Z,962.47
2022-09-14T10:36:25.420Z,962.47
2022-09-14T10:37:25.405Z,962.49
2022-09-14T10:38:25.368Z,962.47
2022-09-14T10:39:26.293Z,962.43
2022-09-14T10:40:25.385Z,962.49
2022-09-14T10:41:25.330Z,962.45
2022-09-14T10:42:25.400Z,962.42
2022-09-14T10:43:25.334Z,962.45
2022-09-14T10:44:25.340Z,962.47
2022-09-14T10:45:25.285Z,962.44
2022-09-14T10:46:25.322Z,962.45
2022-09-14T10:47:25.263Z,962.43
2022-09-14T10:48:25.276Z,962.43
2022-09-14T10:49:25.278Z,962.40
2022-09-14T10:50:25.250Z,962.42
2022-09-14T10:51:25.232Z,962.39
2022-09-14T10:52:25.206Z,962.42
2022-09-14T10:53:25.225Z,962.40
2022-09-14T10:54:25.233Z,962.41
2022-09-14T10:55:25.200Z,962.41
2022-09-14T10:56:25.180Z,962.42
2022-09-14T10:57:25.172Z,962.43
2022-09-14T10:58:25.153Z,962.44
2022-09-14T10:59:25.204Z,962.41
2022-09-14T11:00:25.424Z,962.41
2022-09-14T11:01:25.147Z,962.44
2022-09-14T11:02:25.312Z,962.42
2022-09-14T11:03:25.111Z,962.39
2022-09-14T11:04:25.086Z,962.41
2022-09-14T11:05:25.102Z,962.42
2022-09-14T11:06:25.090Z,962.40
2022-09-14T11:07:25.048Z,962.40
2022-09-14T11:08:25.046Z,962.46
2022-09-14T11:09:25.276Z,962.45
2022-09-14T11:10:25.100Z,962.44
2022-09-14T11:11:24.999Z,962.37
2022-09-14T11:12:25.001Z,962.40
2022-09-14T11:13:24.988Z,962.41
2022-09-14T11:14:24.969Z,962.40
2022-09-14T11:15:24.963Z,962.38
2022-09-14T11:16:25.059Z,962.37
2022-09-14T11:17:24.944Z,962.38
2022-09-14T11:18:24.934Z,962.37
2022-09-14T11:19:24.924Z,962.34
2022-09-14T11:20:24.921Z,962.42
2022-09-14T11:21:24.954Z,962.34
2022-09-14T11:22:24.895Z,962.35
2022-09-14T11:23:24.861Z,962.34
2022-09-14T11:24:24.861Z,962.31
2022-09-14T11:25:24.870Z,962.34
2022-09-14T11:26:24.881Z,962.33
2022-09-14T11:27:24.836Z,962.38
2022-09-14T11:28:24.829Z,962.35
2022-09-14T11:29:24.821Z,962.34
2022-09-14T11:30:25.652Z,962.30
2022-09-14T11:31:24.880Z,962.30
2022-09-14T11:32:24.807Z,962.29
2022-09-14T11:33:29.053Z,962.28
2022-09-14T11:34:24.768Z,962.26
2022-09-14T11:35:24.768Z,962.28
2022-09-14T11:36:24.778Z,962.25
2022-09-14T11:37:24.798Z,962.25
2022-09-14T11:38:24.699Z,962.30
2022-09-14T11:39:24.719Z,962.15
2022-09-14T11:40:24.738Z,962.16
2022-09-14T11:41:24.677Z,962.19
2022-09-14T11:42:24.739Z,962.16
2022-09-14T11:43:24.740Z,962.09
2022-09-14T11:44:24.663Z,962.10
2022-09-14T11:45:24.654Z,962.15
2022-09-14T11:46:24.689Z,962.11
2022-09-14T11:47:24.682Z,962.14
2022-09-14T11:49:26.612Z,962.09
2022-09-14T11:50:24.600Z,962.15
2022-09-14T11:51:24.585Z,962.12
2022-09-14T11:52:24.578Z,962.14
2022-09-14T11:53:24.613Z,962.12
2022-09-14T11:54:24.558Z,962.10
2022-09-14T11:55:25.122Z,962.17
2022-09-14T11:56:24.527Z,962.13
2022-09-14T11:57:24.516Z,962.18
2022-09-14T11:58:24.543Z,962.09
2022-09-14T11:59:24.487Z,962.12
2022-09-14T12:00:24.501Z,962.11
2022-09-14T12:01:24.476Z,962.08
2022-09-14T12:02:24.480Z,962.15
2022-09-14T12:03:24.534Z,962.13
2022-09-14T12:04:24.987Z,962.10
2022-09-14T12:05:24.464Z,962.11
2022-09-14T12:06:24.445Z,962.18
2022-09-14T12:07:24.403Z,962.16
2022-09-14T12:08:24.402Z,962.16
2022-09-14T12:11:21.235Z,962.11
2022-09-14T12:12:21.135Z,962.15
2022-09-14T12:13:21.302Z,962.19
2022-09-14T12:14:21.056Z,962.16
2022-09-14T12:15:21.250Z,962.15
2022-09-14T12:16:21.039Z,962.14
2022-09-14T12:18:20.994Z,962.04
2022-09-14T12:19:20.987Z,961.97
2022-09-14T12:20:20.986Z,962.03
2022-09-14T12:21:20.995Z,962.04
2022-09-14T12:22:20.952Z,962.12
2022-09-14T12:23:20.949Z,962.05
2022-09-14T12:24:20.921Z,962.05
2022-09-14T12:25:21.088Z,962.09
2022-09-14T12:26:20.948Z,962.05
2022-09-14T12:27:20.901Z,962.07
2022-09-14T12:28:20.898Z,962.03
2022-09-14T12:29:20.875Z,962.04
2022-09-14T12:30:20.855Z,962.09
2022-09-14T12:31:20.938Z,962.08
2022-09-14T12:32:35.730Z,962.12